sensor_id;sensor_type;location;lat;lon;timestamp;pressure;altitude;pressure_sealevel;temperature
67515;BMP280;60646;55.802;37.032;2023-04-06T00:00:12;100433.25;;;10.03
67515;BMP280;60646;55.802;37.032;2023-04-06T00:02:39;100415.13;;;9.92
67515;BMP280;60646;55.802;37.032;2023-04-06T00:05:05;100421.47;;;9.95
67515;BMP280;60646;55.802;37.032;2023-04-06T00:07:32;100426.53;;;9.93
67515;BMP280;60646;55.802;37.032;2023-04-06T00:09:58;100429.22;;;9.93
67515;BMP280;60646;55.802;37.032;2023-04-06T00:12:24;100420.03;;;9.85
67515;BMP280;60646;55.802;37.032;2023-04-06T00:14:50;100428.06;;;9.85
67515;BMP280;60646;55.802;37.032;2023-04-06T00:17:16;100436.06;;;9.85
67515;BMP280;60646;55.802;37.032;2023-04-06T00:19:42;100430.72;;;9.85
67515;BMP280;60646;55.802;37.032;2023-04-06T00:22:07;100436.97;;;9.82
67515;BMP280;60646;55.802;37.032;2023-04-06T00:24:33;100428.13;;;9.76
67515;BMP280;60646;55.802;37.032;2023-04-06T00:26:59;100422.56;;;9.65
67515;BMP280;60646;55.802;37.032;2023-04-06T00:29:25;100444.22;;;9.81
67515;BMP280;60646;55.802;37.032;2023-04-06T00:31:51;100444.69;;;9.80
67515;BMP280;60646;55.802;37.032;2023-04-06T00:34:16;100418.28;;;9.58
67515;BMP280;60646;55.802;37.032;2023-04-06T00:36:42;100431.88;;;9.69
67515;BMP280;60646;55.802;37.032;2023-04-06T00:39:08;100425.66;;;9.63
67515;BMP280;60646;55.802;37.032;2023-04-06T00:41:34;100444.13;;;9.76
67515;BMP280;60646;55.802;37.032;2023-04-06T00:44:01;100423.19;;;9.60
67515;BMP280;60646;55.802;37.032;2023-04-06T00:46:27;100425.84;;;9.60
67515;BMP280;60646;55.802;37.032;2023-04-06T00:48:53;100425.09;;;9.59
67515;BMP280;60646;55.802;37.032;2023-04-06T00:51:19;100425.09;;;9.59
67515;BMP280;60646;55.802;37.032;2023-04-06T00:53:45;100421.56;;;9.53
67515;BMP280;60646;55.802;37.032;2023-04-06T00:56:12;100405.78;;;9.40
67515;BMP280;60646;55.802;37.032;2023-04-06T00:58:56;100423.41;;;9.47
67515;BMP280;60646;55.802;37.032;2023-04-06T01:01:23;100418.50;;;9.46
67515;BMP280;60646;55.802;37.032;2023-04-06T01:03:52;100402.75;;;9.33
67515;BMP280;60646;55.802;37.032;2023-04-06T01:06:19;100411.19;;;9.31
67515;BMP280;60646;55.802;37.032;2023-04-06T01:08:54;100404.06;;;9.28
67515;BMP280;60646;55.802;37.032;2023-04-06T01:11:21;100409.25;;;9.32
67515;BMP280;60646;55.802;37.032;2023-04-06T01:13:49;100392.56;;;9.22
67515;BMP280;60646;55.802;37.032;2023-04-06T01:16:38;100417.25;;;9.32
67515;BMP280;60646;55.802;37.032;2023-04-06T01:19:16;100406.19;;;9.24
67515;BMP280;60646;55.802;37.032;2023-04-06T01:21:46;100411.19;;;9.31
67515;BMP280;60646;55.802;37.032;2023-04-06T01:24:30;100426.53;;;9.36
67515;BMP280;60646;55.802;37.032;2023-04-06T01:27:15;100418.91;;;9.29
67515;BMP280;60646;55.802;37.032;2023-04-06T01:29:55;100402.63;;;9.18
67515;BMP280;60646;55.802;37.032;2023-04-06T01:32:35;100411.22;;;9.22
67515;BMP280;60646;55.802;37.032;2023-04-06T01:35:01;100405.03;;;9.16
67515;BMP280;60646;55.802;37.032;2023-04-06T01:37:29;100417.72;;;9.21
67515;BMP280;60646;55.802;37.032;2023-04-06T01:39:59;100405.91;;;9.13
67515;BMP280;60646;55.802;37.032;2023-04-06T01:42:38;100391.16;;;9.03
67515;BMP280;60646;55.802;37.032;2023-04-06T01:45:06;100415.09;;;9.12
67515;BMP280;60646;55.802;37.032;2023-04-06T01:47:32;100414.22;;;9.15
67515;BMP280;60646;55.802;37.032;2023-04-06T01:49:58;100408.31;;;9.11
67515;BMP280;60646;55.802;37.032;2023-04-06T01:52:24;100406.81;;;9.10
67515;BMP280;60646;55.802;37.032;2023-04-06T01:54:52;100422.47;;;9.17
67515;BMP280;60646;55.802;37.032;2023-04-06T01:57:38;100413.63;;;9.11
67515;BMP280;60646;55.802;37.032;2023-04-06T02:00:15;100406.53;;;8.99
67515;BMP280;60646;55.802;37.032;2023-04-06T02:02:53;100399.75;;;8.98
67515;BMP280;60646;55.802;37.032;2023-04-06T02:05:35;100418.97;;;9.11
67515;BMP280;60646;55.802;37.032;2023-04-06T02:08:14;100406.53;;;8.99
67515;BMP280;60646;55.802;37.032;2023-04-06T02:10:41;100349.84;;;8.66
67515;BMP280;60646;55.802;37.032;2023-04-06T02:13:17;100428.13;;;9.10
67515;BMP280;60646;55.802;37.032;2023-04-06T02:15:58;100418.97;;;9.11
67515;BMP280;60646;55.802;37.032;2023-04-06T02:18:33;100394.00;;;8.91
67515;BMP280;60646;55.802;37.032;2023-04-06T02:20:59;100373.47;;;8.73
67515;BMP280;60646;55.802;37.032;2023-04-06T02:23:34;100384.13;;;8.82
67515;BMP280;60646;55.802;37.032;2023-04-06T02:26:00;100420.63;;;9.00
67515;BMP280;60646;55.802;37.032;2023-04-06T02:28:25;100414.72;;;8.96
67515;BMP280;60646;55.802;37.032;2023-04-06T02:30:51;100436.75;;;9.05
67515;BMP280;60646;55.802;37.032;2023-04-06T02:33:18;100418.13;;;8.96
67515;BMP280;60646;55.802;37.032;2023-04-06T02:35:46;100421.69;;;8.93
67515;BMP280;60646;55.802;37.032;2023-04-06T02:38:12;100438.41;;;9.03
67515;BMP280;60646;55.802;37.032;2023-04-06T02:40:38;100436.91;;;9.02
67515;BMP280;60646;55.802;37.032;2023-04-06T02:43:33;100440.19;;;8.97
67515;BMP280;60646;55.802;37.032;2023-04-06T02:46:12;100445.53;;;8.97
67515;BMP280;60646;55.802;37.032;2023-04-06T02:48:38;100439.75;;;8.89
67515;BMP280;60646;55.802;37.032;2023-04-06T02:51:05;100445.69;;;8.93
67515;BMP280;60646;55.802;37.032;2023-04-06T02:53:31;100449.50;;;8.92
67515;BMP280;60646;55.802;37.032;2023-04-06T02:55:58;100459.28;;;8.95
67515;BMP280;60646;55.802;37.032;2023-04-06T02:58:30;100454.25;;;8.88
67515;BMP280;60646;55.802;37.032;2023-04-06T03:00:57;100445.69;;;8.84
67515;BMP280;60646;55.802;37.032;2023-04-06T03:03:22;100443.91;;;8.81
67515;BMP280;60646;55.802;37.032;2023-04-06T03:05:48;100462.53;;;8.90
67515;BMP280;60646;55.802;37.032;2023-04-06T03:08:18;100464.19;;;8.88
67515;BMP280;60646;55.802;37.032;2023-04-06T03:10:45;100456.94;;;8.79
67515;BMP280;60646;55.802;37.032;2023-04-06T03:13:12;100462.72;;;8.77
67515;BMP280;60646;55.802;37.032;2023-04-06T03:15:47;100480.31;;;8.93
67515;BMP280;60646;55.802;37.032;2023-04-06T03:18:21;100485.94;;;8.95
67515;BMP280;60646;55.802;37.032;2023-04-06T03:20:49;100472.03;;;8.82
67515;BMP280;60646;55.802;37.032;2023-04-06T03:23:17;100466.13;;;8.78
67515;BMP280;60646;55.802;37.032;2023-04-06T03:25:44;100476.19;;;8.83
67515;BMP280;60646;55.802;37.032;2023-04-06T03:28:15;100462.25;;;8.79
67515;BMP280;60646;55.802;37.032;2023-04-06T03:30:57;100464.66;;;8.77
67515;BMP280;60646;55.802;37.032;2023-04-06T03:33:45;100465.53;;;8.74
67515;BMP280;60646;55.802;37.032;2023-04-06T03:36:18;100458.88;;;8.69
67515;BMP280;60646;55.802;37.032;2023-04-06T03:38:44;100475.88;;;8.81
67515;BMP280;60646;55.802;37.032;2023-04-06T03:41:12;100484.91;;;8.83
67515;BMP280;60646;55.802;37.032;2023-04-06T03:43:41;100468.19;;;8.74
67515;BMP280;60646;55.802;37.032;2023-04-06T03:46:07;100483.56;;;8.79
67515;BMP280;60646;55.802;37.032;2023-04-06T03:48:33;100492.59;;;8.81
67515;BMP280;60646;55.802;37.032;2023-04-06T03:51:03;100494.09;;;8.82
67515;BMP280;60646;55.802;37.032;2023-04-06T03:53:29;100496.31;;;8.84
67515;BMP280;60646;55.802;37.032;2023-04-06T03:55:54;100501.66;;;8.84
67515;BMP280;60646;55.802;37.032;2023-04-06T03:58:20;100487.72;;;8.80
67515;BMP280;60646;55.802;37.032;2023-04-06T04:00:46;100494.50;;;8.81
67515;BMP280;60646;55.802;37.032;2023-04-06T04:03:12;100485.50;;;8.78
67515;BMP280;60646;55.802;37.032;2023-04-06T04:05:37;100491.00;;;8.84
67515;BMP280;60646;55.802;37.032;2023-04-06T04:08:03;100499.84;;;8.90
67515;BMP280;60646;55.802;37.032;2023-04-06T04:10:30;100510.81;;;8.92
67515;BMP280;60646;55.802;37.032;2023-04-06T04:12:56;100497.16;;;8.90
67515;BMP280;60646;55.802;37.032;2023-04-06T04:15:22;100499.72;;;8.94
67515;BMP280;60646;55.802;37.032;2023-04-06T04:17:48;100499.25;;;8.95
67515;BMP280;60646;55.802;37.032;2023-04-06T04:20:15;100518.75;;;9.10
67515;BMP280;60646;55.802;37.032;2023-04-06T04:22:41;100509.16;;;9.04
67515;BMP280;60646;55.802;37.032;2023-04-06T04:25:09;100499.06;;;8.99
67515;BMP280;60646;55.802;37.032;2023-04-06T04:27:40;100504.88;;;9.06
67515;BMP280;60646;55.802;37.032;2023-04-06T04:30:06;100523.03;;;9.17
67515;BMP280;60646;55.802;37.032;2023-04-06T04:32:32;100523.19;;;9.22
67515;BMP280;60646;55.802;37.032;2023-04-06T04:35:00;100516.06;;;9.19
67515;BMP280;60646;55.802;37.032;2023-04-06T04:37:52;100511.78;;;9.22
67515;BMP280;60646;55.802;37.032;2023-04-06T04:40:18;100516.50;;;9.27
67515;BMP280;60646;55.802;37.032;2023-04-06T04:43:01;100514.13;;;9.29
67515;BMP280;60646;55.802;37.032;2023-04-06T04:45:30;100515.47;;;9.33
67515;BMP280;60646;55.802;37.032;2023-04-06T04:48:00;100526.97;;;9.39
67515;BMP280;60646;55.802;37.032;2023-04-06T04:50:33;100527.28;;;9.41
67515;BMP280;60646;55.802;37.032;2023-04-06T04:52:59;100527.84;;;9.46
67515;BMP280;60646;55.802;37.032;2023-04-06T04:55:26;100530.47;;;9.55
67515;BMP280;60646;55.802;37.032;2023-04-06T04:57:54;100517.00;;;9.49
67515;BMP280;60646;55.802;37.032;2023-04-06T05:00:26;100514.81;;;9.48
67515;BMP280;60646;55.802;37.032;2023-04-06T05:02:56;100522.44;;;9.64
67515;BMP280;60646;55.802;37.032;2023-04-06T05:05:25;100516.81;;;9.62
67515;BMP280;60646;55.802;37.032;2023-04-06T05:07:51;100525.06;;;9.73
67515;BMP280;60646;55.802;37.032;2023-04-06T05:10:26;100512.91;;;9.72
67515;BMP280;60646;55.802;37.032;2023-04-06T05:13:11;100514.97;;;9.77
67515;BMP280;60646;55.802;37.032;2023-04-06T05:15:37;100515.69;;;9.86
67515;BMP280;60646;55.802;37.032;2023-04-06T05:18:19;100510.19;;;9.81
67515;BMP280;60646;55.802;37.032;2023-04-06T05:20:45;100519.19;;;9.92
67515;BMP280;60646;55.802;37.032;2023-04-06T05:23:11;100517.56;;;9.95
67515;BMP280;60646;55.802;37.032;2023-04-06T05:25:37;100516.31;;;10.05
67515;BMP280;60646;55.802;37.032;2023-04-06T05:28:13;100532.84;;;10.18
67515;BMP280;60646;55.802;37.032;2023-04-06T05:30:43;100535.16;;;10.25
67515;BMP280;60646;55.802;37.032;2023-04-06T05:33:11;100513.13;;;10.16
67515;BMP280;60646;55.802;37.032;2023-04-06T05:35:55;100528.28;;;10.33
67515;BMP280;60646;55.802;37.032;2023-04-06T05:38:22;100529.47;;;10.32
67515;BMP280;60646;55.802;37.032;2023-04-06T05:40:49;100518.34;;;10.34
67515;BMP280;60646;55.802;37.032;2023-04-06T05:43:19;100511.34;;;10.36
67515;BMP280;60646;55.802;37.032;2023-04-06T05:45:51;100508.22;;;10.38
67515;BMP280;60646;55.802;37.032;2023-04-06T05:48:17;100527.00;;;10.43
67515;BMP280;60646;55.802;37.032;2023-04-06T05:50:48;100524.75;;;10.51
67515;BMP280;60646;55.802;37.032;2023-04-06T05:53:14;100522.81;;;10.51
67515;BMP280;60646;55.802;37.032;2023-04-06T05:55:51;100532.22;;;10.62
67515;BMP280;60646;55.802;37.032;2023-04-06T05:58:19;100530.09;;;10.66
67515;BMP280;60646;55.802;37.032;2023-04-06T06:00:47;100550.28;;;10.81
67515;BMP280;60646;55.802;37.032;2023-04-06T06:03:15;100520.44;;;10.68
67515;BMP280;60646;55.802;37.032;2023-04-06T06:05:46;100520.78;;;10.76
67515;BMP280;60646;55.802;37.032;2023-04-06T06:08:21;100539.97;;;10.89
67515;BMP280;60646;55.802;37.032;2023-04-06T06:10:48;100543.16;;;11.02
67515;BMP280;60646;55.802;37.032;2023-04-06T06:13:16;100533.34;;;10.99
67515;BMP280;60646;55.802;37.032;2023-04-06T06:15:42;100550.13;;;11.14
67515;BMP280;60646;55.802;37.032;2023-04-06T06:18:12;100521.63;;;11.11
67515;BMP280;60646;55.802;37.032;2023-04-06T06:20:39;100524.13;;;11.15
67515;BMP280;60646;55.802;37.032;2023-04-06T06:23:05;100520.41;;;11.12
67515;BMP280;60646;55.802;37.032;2023-04-06T06:25:32;100515.63;;;11.16
67515;BMP280;60646;55.802;37.032;2023-04-06T06:28:01;100523.56;;;11.25
67515;BMP280;60646;55.802;37.032;2023-04-06T06:30:30;100526.84;;;11.35
67515;BMP280;60646;55.802;37.032;2023-04-06T06:32:59;100522.25;;;11.35
67515;BMP280;60646;55.802;37.032;2023-04-06T06:35:26;100517.97;;;11.43
67515;BMP280;60646;55.802;37.032;2023-04-06T06:38:13;100540.19;;;11.64
67515;BMP280;60646;55.802;37.032;2023-04-06T06:40:40;100523.78;;;11.56
67515;BMP280;60646;55.802;37.032;2023-04-06T06:43:06;100519.63;;;11.55
67515;BMP280;60646;55.802;37.032;2023-04-06T06:45:43;100512.91;;;11.60
67515;BMP280;60646;55.802;37.032;2023-04-06T06:48:12;100502.63;;;11.58
67515;BMP280;60646;55.802;37.032;2023-04-06T06:50:57;100524.75;;;11.74
67515;BMP280;60646;55.802;37.032;2023-04-06T06:53:23;100514.94;;;11.70
67515;BMP280;60646;55.802;37.032;2023-04-06T06:55:49;100521.28;;;11.88
67515;BMP280;60646;55.802;37.032;2023-04-06T06:58:17;100533.75;;;11.91
67515;BMP280;60646;55.802;37.032;2023-04-06T07:00:43;100528.16;;;11.94
67515;BMP280;60646;55.802;37.032;2023-04-06T07:03:10;100510.63;;;11.93
67515;BMP280;60646;55.802;37.032;2023-04-06T07:05:45;100508.28;;;12.01
67515;BMP280;60646;55.802;37.032;2023-04-06T07:08:16;100528.66;;;12.13
67515;BMP280;60646;55.802;37.032;2023-04-06T07:10:42;100526.78;;;12.19
67515;BMP280;60646;55.802;37.032;2023-04-06T07:13:08;100504.81;;;12.15
67515;BMP280;60646;55.802;37.032;2023-04-06T07:15:34;100505.88;;;12.23
67515;BMP280;60646;55.802;37.032;2023-04-06T07:18:01;100512.03;;;12.29
67515;BMP280;60646;55.802;37.032;2023-04-06T07:20:27;100511.34;;;12.34
67515;BMP280;60646;55.802;37.032;2023-04-06T07:22:54;100514.66;;;12.49
67515;BMP280;60646;55.802;37.032;2023-04-06T07:25:20;100511.22;;;12.49
67515;BMP280;60646;55.802;37.032;2023-04-06T07:27:46;100500.59;;;12.54
67515;BMP280;60646;55.802;37.032;2023-04-06T07:30:14;100517.03;;;12.67
67515;BMP280;60646;55.802;37.032;2023-04-06T07:32:40;100502.88;;;12.67
67515;BMP280;60646;55.802;37.032;2023-04-06T07:35:08;100516.19;;;12.81
67515;BMP280;60646;55.802;37.032;2023-04-06T07:37:34;100516.25;;;12.87
67515;BMP280;60646;55.802;37.032;2023-04-06T07:40:00;100511.19;;;12.95
67515;BMP280;60646;55.802;37.032;2023-04-06T07:42:28;100514.88;;;13.03
67515;BMP280;60646;55.802;37.032;2023-04-06T07:52:05;100500.34;;;13.15
67515;BMP280;60646;55.802;37.032;2023-04-06T07:54:32;100496.94;;;13.20
67515;BMP280;60646;55.802;37.032;2023-04-06T07:56:58;100501.94;;;13.38
67515;BMP280;60646;55.802;37.032;2023-04-06T07:59:24;100506.59;;;13.43
67515;BMP280;60646;55.802;37.032;2023-04-06T08:01:49;100491.00;;;13.47
67515;BMP280;60646;55.802;37.032;2023-04-06T08:04:15;100499.63;;;13.62
67515;BMP280;60646;55.802;37.032;2023-04-06T08:06:41;100499.19;;;13.69
67515;BMP280;60646;55.802;37.032;2023-04-06T08:09:07;100507.78;;;13.84
67515;BMP280;60646;55.802;37.032;2023-04-06T08:11:34;100484.09;;;13.77
67515;BMP280;60646;55.802;37.032;2023-04-06T08:13:59;100511.75;;;14.00
67515;BMP280;60646;55.802;37.032;2023-04-06T08:16:25;100497.09;;;14.01
67515;BMP280;60646;55.802;37.032;2023-04-06T08:18:51;100486.09;;;14.04
67515;BMP280;60646;55.802;37.032;2023-04-06T08:21:17;100498.13;;;14.31
67515;BMP280;60646;55.802;37.032;2023-04-06T08:23:43;100489.34;;;14.31
67515;BMP280;60646;55.802;37.032;2023-04-06T08:26:09;100490.06;;;14.42
67515;BMP280;60646;55.802;37.032;2023-04-06T08:28:35;100492.03;;;14.53
67515;BMP280;60646;55.802;37.032;2023-04-06T08:31:07;100500.13;;;14.64
67515;BMP280;60646;55.802;37.032;2023-04-06T08:33:51;100496.94;;;14.71
67515;BMP280;60646;55.802;37.032;2023-04-06T08:36:17;100493.28;;;14.80
67515;BMP280;60646;55.802;37.032;2023-04-06T08:39:06;100486.91;;;14.83
67515;BMP280;60646;55.802;37.032;2023-04-06T08:41:32;100504.25;;;14.98
67515;BMP280;60646;55.802;37.032;2023-04-06T08:44:16;100480.75;;;14.93
67515;BMP280;60646;55.802;37.032;2023-04-06T08:46:42;100474.91;;;15.00
67515;BMP280;60646;55.802;37.032;2023-04-06T08:49:27;100496.84;;;15.21
67515;BMP280;60646;55.802;37.032;2023-04-06T08:51:54;100486.38;;;15.17
67515;BMP280;60646;55.802;37.032;2023-04-06T08:54:20;100487.78;;;15.29
67515;BMP280;60646;55.802;37.032;2023-04-06T08:56:47;100463.31;;;15.27
67515;BMP280;60646;55.802;37.032;2023-04-06T08:59:14;100496.78;;;15.49
67515;BMP280;60646;55.802;37.032;2023-04-06T09:01:40;100487.47;;;15.50
67515;BMP280;60646;55.802;37.032;2023-04-06T09:04:08;100474.75;;;15.50
67515;BMP280;60646;55.802;37.032;2023-04-06T09:06:37;100484.25;;;15.62
67515;BMP280;60646;55.802;37.032;2023-04-06T09:09:03;100493.47;;;15.78
67515;BMP280;60646;55.802;37.032;2023-04-06T09:11:42;100487.63;;;15.74
67515;BMP280;60646;55.802;37.032;2023-04-06T09:14:11;100498.03;;;15.94
67515;BMP280;60646;55.802;37.032;2023-04-06T09:16:44;100492.13;;;16.01
67515;BMP280;60646;55.802;37.032;2023-04-06T09:19:29;100476.94;;;15.98
67515;BMP280;60646;55.802;37.032;2023-04-06T09:22:05;100493.50;;;16.13
67515;BMP280;60646;55.802;37.032;2023-04-06T09:24:45;100494.44;;;16.21
67515;BMP280;60646;55.802;37.032;2023-04-06T09:27:12;100476.38;;;16.11
67515;BMP280;60646;55.802;37.032;2023-04-06T09:29:38;100479.50;;;16.20
67515;BMP280;60646;55.802;37.032;2023-04-06T09:32:11;100488.91;;;16.38
67515;BMP280;60646;55.802;37.032;2023-04-06T09:34:38;100498.19;;;16.42
67515;BMP280;60646;55.802;37.032;2023-04-06T09:37:17;100493.69;;;16.50
67515;BMP280;60646;55.802;37.032;2023-04-06T09:39:45;100487.34;;;16.53
67515;BMP280;60646;55.802;37.032;2023-04-06T09:42:24;100486.75;;;16.60
67515;BMP280;60646;55.802;37.032;2023-04-06T09:44:51;100473.06;;;16.58
67515;BMP280;60646;55.802;37.032;2023-04-06T09:47:17;100485.19;;;16.70
67515;BMP280;60646;55.802;37.032;2023-04-06T09:49:46;100477.78;;;16.77
67515;BMP280;60646;55.802;37.032;2023-04-06T09:52:13;100457.03;;;16.66
67515;BMP280;60646;55.802;37.032;2023-04-06T09:54:40;100467.00;;;16.77
67515;BMP280;60646;55.802;37.032;2023-04-06T10:00:05;100467.56;;;16.94
67515;BMP280;60646;55.802;37.032;2023-04-06T10:02:55;100451.56;;;16.96
67515;BMP280;60646;55.802;37.032;2023-04-06T10:07:57;100462.69;;;17.11
67515;BMP280;60646;55.802;37.032;2023-04-06T10:10:23;100444.16;;;17.02
67515;BMP280;60646;55.802;37.032;2023-04-06T10:12:49;100436.47;;;17.06
67515;BMP280;60646;55.802;37.032;2023-04-06T10:15:16;100461.91;;;17.16
67515;BMP280;60646;55.802;37.032;2023-04-06T10:17:42;100433.50;;;17.09
67515;BMP280;60646;55.802;37.032;2023-04-06T10:22:57;100463.13;;;17.39
67515;BMP280;60646;55.802;37.032;2023-04-06T10:28:20;100453.53;;;17.38
67515;BMP280;60646;55.802;37.032;2023-04-06T10:30:46;100440.47;;;17.42
67515;BMP280;60646;55.802;37.032;2023-04-06T10:33:16;100458.94;;;17.57
67515;BMP280;60646;55.802;37.032;2023-04-06T10:35:41;100449.91;;;17.54
67515;BMP280;60646;55.802;37.032;2023-04-06T10:38:07;100456.34;;;17.64
67515;BMP280;60646;55.802;37.032;2023-04-06T10:40:38;100460.47;;;17.71
67515;BMP280;60646;55.802;37.032;2023-04-06T10:43:22;100455.28;;;17.73
67515;BMP280;60646;55.802;37.032;2023-04-06T10:45:55;100448.03;;;17.81
67515;BMP280;60646;55.802;37.032;2023-04-06T10:48:22;100436.88;;;17.71
67515;BMP280;60646;55.802;37.032;2023-04-06T10:50:52;100448.97;;;17.83
67515;BMP280;60646;55.802;37.032;2023-04-06T10:53:23;100454.81;;;17.87
67515;BMP280;60646;55.802;37.032;2023-04-06T10:55:50;100437.88;;;17.87
67515;BMP280;60646;55.802;37.032;2023-04-06T10:58:16;100449.41;;;17.87
67515;BMP280;60646;55.802;37.032;2023-04-06T11:00:46;100437.88;;;17.87
67515;BMP280;60646;55.802;37.032;2023-04-06T11:03:13;100455.66;;;17.95
67515;BMP280;60646;55.802;37.032;2023-04-06T11:05:44;100446.00;;;18.00
67515;BMP280;60646;55.802;37.032;2023-04-06T11:08:10;100433.75;;;17.99
67515;BMP280;60646;55.802;37.032;2023-04-06T11:10:36;100440.69;;;17.94
67515;BMP280;60646;55.802;37.032;2023-04-06T11:13:02;100427.91;;;17.95
67515;BMP280;60646;55.802;37.032;2023-04-06T11:15:34;100435.94;;;18.00
67515;BMP280;60646;55.802;37.032;2023-04-06T11:18:04;100437.81;;;18.05
67515;BMP280;60646;55.802;37.032;2023-04-06T11:20:30;100434.91;;;18.03
67515;BMP280;60646;55.802;37.032;2023-04-06T11:22:56;100418.97;;;18.00
67515;BMP280;60646;55.802;37.032;2023-04-06T11:25:24;100429.38;;;18.09
67515;BMP280;60646;55.802;37.032;2023-04-06T11:27:52;100440.53;;;18.19
67515;BMP280;60646;55.802;37.032;2023-04-06T11:30:18;100425.13;;;18.13
67515;BMP280;60646;55.802;37.032;2023-04-06T11:32:45;100431.94;;;18.20
67515;BMP280;60646;55.802;37.032;2023-04-06T11:35:21;100425.47;;;18.23
67515;BMP280;60646;55.802;37.032;2023-04-06T11:37:51;100434.97;;;18.30
67515;BMP280;60646;55.802;37.032;2023-04-06T11:40:21;100426.44;;;18.39
67515;BMP280;60646;55.802;37.032;2023-04-06T11:42:56;100415.59;;;18.26
67515;BMP280;60646;55.802;37.032;2023-04-06T11:45:22;100422.03;;;18.36
67515;BMP280;60646;55.802;37.032;2023-04-06T11:47:56;100431.22;;;18.46
67515;BMP280;60646;55.802;37.032;2023-04-06T11:50:32;100434.56;;;18.52
67515;BMP280;60646;55.802;37.032;2023-04-06T11:53:00;100439.97;;;18.52
67515;BMP280;60646;55.802;37.032;2023-04-06T11:55:26;100411.66;;;18.40
67515;BMP280;60646;55.802;37.032;2023-04-06T11:57:52;100430.19;;;18.49
67515;BMP280;60646;55.802;37.032;2023-04-06T12:00:18;100432.03;;;18.54
67515;BMP280;60646;55.802;37.032;2023-04-06T12:02:46;100441.13;;;18.56
67515;BMP280;60646;55.802;37.032;2023-04-06T12:05:12;100416.84;;;18.51
67515;BMP280;60646;55.802;37.032;2023-04-06T12:07:38;100419.06;;;18.52
67515;BMP280;60646;55.802;37.032;2023-04-06T12:10:28;100432.25;;;18.69
67515;BMP280;60646;55.802;37.032;2023-04-06T12:12:54;100412.19;;;18.51
67515;BMP280;60646;55.802;37.032;2023-04-06T12:15:20;100420.78;;;18.63
67515;BMP280;60646;55.802;37.032;2023-04-06T12:17:47;100420.69;;;18.68
67515;BMP280;60646;55.802;37.032;2023-04-06T12:20:13;100424.38;;;18.71
67515;BMP280;60646;55.802;37.032;2023-04-06T12:22:39;100405.84;;;18.62
67515;BMP280;60646;55.802;37.032;2023-04-06T12:25:05;100391.25;;;18.65
67515;BMP280;60646;55.802;37.032;2023-04-06T12:27:32;100423.41;;;18.81
67515;BMP280;60646;55.802;37.032;2023-04-06T12:29:58;100414.78;;;18.83
67515;BMP280;60646;55.802;37.032;2023-04-06T12:32:24;100424.13;;;18.82
67515;BMP280;60646;55.802;37.032;2023-04-06T12:34:53;100421.81;;;18.86
67515;BMP280;60646;55.802;37.032;2023-04-06T12:37:19;100410.59;;;18.82
67515;BMP280;60646;55.802;37.032;2023-04-06T12:39:45;100405.72;;;18.80
67515;BMP280;60646;55.802;37.032;2023-04-06T12:42:11;100412.47;;;18.87
67515;BMP280;60646;55.802;37.032;2023-04-06T12:44:38;100407.72;;;18.80
67515;BMP280;60646;55.802;37.032;2023-04-06T12:47:04;100386.31;;;18.76
67515;BMP280;60646;55.802;37.032;2023-04-06T12:49:30;100410.16;;;18.91
67515;BMP280;60646;55.802;37.032;2023-04-06T12:51:57;100406.16;;;18.84
67515;BMP280;60646;55.802;37.032;2023-04-06T12:54:22;100402.69;;;18.84
67515;BMP280;60646;55.802;37.032;2023-04-06T12:56:48;100403.75;;;18.94
67515;BMP280;60646;55.802;37.032;2023-04-06T12:59:15;100406.44;;;18.94
67515;BMP280;60646;55.802;37.032;2023-04-06T13:01:41;100402.78;;;18.92
67515;BMP280;60646;55.802;37.032;2023-04-06T13:04:07;100402.44;;;18.95
67515;BMP280;60646;55.802;37.032;2023-04-06T13:06:33;100404.31;;;19.00
67515;BMP280;60646;55.802;37.032;2023-04-06T13:08:59;100395.38;;;18.92
67515;BMP280;60646;55.802;37.032;2023-04-06T13:11:26;100375.78;;;18.86
67515;BMP280;60646;55.802;37.032;2023-04-06T13:13:52;100407.03;;;19.00
67515;BMP280;60646;55.802;37.032;2023-04-06T13:16:18;100408.50;;;19.01
67515;BMP280;60646;55.802;37.032;2023-04-06T13:18:45;100407.44;;;19.04
67515;BMP280;60646;55.802;37.032;2023-04-06T13:21:14;100416.50;;;19.07
67515;BMP280;60646;55.802;37.032;2023-04-06T13:23:41;100408.91;;;19.05
67515;BMP280;60646;55.802;37.032;2023-04-06T13:26:07;100399.47;;;18.99
67515;BMP280;60646;55.802;37.032;2023-04-06T13:28:34;100411.84;;;19.07
67515;BMP280;60646;55.802;37.032;2023-04-06T13:31:01;100401.00;;;19.07
67515;BMP280;60646;55.802;37.032;2023-04-06T13:33:28;100409.63;;;19.06
67515;BMP280;60646;55.802;37.032;2023-04-06T13:35:55;100391.84;;;18.97
67515;BMP280;60646;55.802;37.032;2023-04-06T13:38:21;100396.19;;;19.00
67515;BMP280;60646;55.802;37.032;2023-04-06T13:40:47;100396.19;;;19.00
67515;BMP280;60646;55.802;37.032;2023-04-06T13:43:13;100391.84;;;18.97
67515;BMP280;60646;55.802;37.032;2023-04-06T13:45:39;100392.00;;;18.99
67515;BMP280;60646;55.802;37.032;2023-04-06T13:48:05;100390.59;;;18.98
67515;BMP280;60646;55.802;37.032;2023-04-06T13:50:35;100399.94;;;19.10
67515;BMP280;60646;55.802;37.032;2023-04-06T13:53:01;100395.56;;;19.07
67515;BMP280;60646;55.802;37.032;2023-04-06T13:55:26;100391.50;;;19.01
67515;BMP280;60646;55.802;37.032;2023-04-06T13:57:53;100397.72;;;19.09
67515;BMP280;60646;55.802;37.032;2023-04-06T14:00:38;100396.81;;;19.06
67515;BMP280;60646;55.802;37.032;2023-04-06T14:03:05;100391.50;;;19.01
67515;BMP280;60646;55.802;37.032;2023-04-06T14:05:32;100403.88;;;19.09
67515;BMP280;60646;55.802;37.032;2023-04-06T14:07:58;100399.69;;;19.08
67515;BMP280;60646;55.802;37.032;2023-04-06T14:10:24;100392.97;;;19.02
67515;BMP280;60646;55.802;37.032;2023-04-06T14:12:53;100384.63;;;19.00
67515;BMP280;60646;55.802;37.032;2023-04-06T14:15:19;100398.47;;;19.09
67515;BMP280;60646;55.802;37.032;2023-04-06T14:17:47;100388.91;;;18.95